Time;durP1;ratioP1;P1;durP2;ratioP2;P2;SDS_P1;SDS_P2;PMS_P1;PMS_P2;Temp;Humidity;BMP_temperature;BMP_pressure;BME280_temperature;BME280_humidity;BME280_pressure;Samples;Min_cycle;Max_cycle;Signal;HPM_P1;HPM_P2
2023/05/17 00:00:50;;;;;;;23.67;3.20;;;8.40;99.90;;;;;;5111729;27;20408;-91
2023/05/17 00:03:15;;;;;;;18.70;2.50;;;8.30;99.90;;;;;;5114218;27;20441;-90
2023/05/17 00:05:42;;;;;;;20.20;2.87;;;8.30;99.90;;;;;;5112350;27;20393;-90
2023/05/17 00:08:08;;;;;;;20.27;3.00;;;8.30;99.90;;;;;;5114337;27;20484;-90
2023/05/17 00:10:34;;;;;;;20.00;2.92;;;8.40;99.90;;;;;;5113723;27;20402;-90
2023/05/17 00:12:59;;;;;;;22.90;3.22;;;8.20;99.90;;;;;;5113276;27;20921;-90
2023/05/17 00:15:25;;;;;;;20.53;3.30;;;8.20;99.90;;;;;;5114129;27;20393;-90
2023/05/17 00:17:50;;;;;;;18.83;2.88;;;8.40;99.90;;;;;;5112038;27;20412;-91
2023/05/17 00:20:16;;;;;;;19.53;2.83;;;8.10;99.90;;;;;;5114394;27;20911;-91
2023/05/17 00:22:44;;;;;;;22.05;2.85;;;8.00;99.90;;;;;;5111926;27;20396;-90
2023/05/17 00:25:10;;;;;;;21.33;3.22;;;8.00;99.90;;;;;;5113748;27;20484;-90
2023/05/17 00:27:35;;;;;;;23.05;2.75;;;8.00;99.90;;;;;;5112482;27;20924;-89
2023/05/17 00:30:01;;;;;;;22.23;3.43;;;8.00;99.90;;;;;;5113658;27;20405;-90
2023/05/17 00:32:27;;;;;;;23.77;3.58;;;8.00;99.90;;;;;;5113620;27;20754;-89
2023/05/17 00:34:52;;;;;;;21.02;3.30;;;7.90;99.90;;;;;;5112215;27;20418;-90
2023/05/17 00:37:18;;;;;;;22.40;2.80;;;7.90;99.90;;;;;;5114126;27;20425;-90
2023/05/17 00:39:44;;;;;;;18.63;2.60;;;7.90;99.90;;;;;;5112073;27;20411;-90
2023/05/17 00:42:10;;;;;;;22.27;3.23;;;7.90;99.90;;;;;;5114253;27;20397;-89
2023/05/17 00:44:36;;;;;;;25.10;3.45;;;7.90;99.90;;;;;;5111777;27;20385;-90
2023/05/17 00:47:01;;;;;;;20.17;3.17;;;7.90;99.90;;;;;;5114156;27;20408;-90
2023/05/17 00:49:28;;;;;;;19.83;3.15;;;7.90;99.90;;;;;;5115332;27;20472;-89
2023/05/17 00:51:54;;;;;;;19.75;3.40;;;7.90;99.90;;;;;;5116872;27;20518;-90
2023/05/17 00:54:20;;;;;;;21.17;3.50;;;8.40;99.90;;;;;;5117627;27;20400;-90
2023/05/17 00:56:47;;;;;;;21.67;2.88;;;7.90;99.90;;;;;;5115444;27;20397;-90
2023/05/17 00:59:13;;;;;;;20.37;3.00;;;7.90;99.90;;;;;;5117432;27;20506;-90
2023/05/17 01:01:42;;;;;;;17.67;2.85;;;7.90;99.90;;;;;;5115516;27;20400;-90
2023/05/17 01:04:09;;;;;;;19.67;3.22;;;7.90;99.90;;;;;;5117336;27;20409;-91
2023/05/17 01:06:37;;;;;;;19.52;2.70;;;7.90;99.90;;;;;;5115744;27;20428;-90
2023/05/17 01:09:04;;;;;;;19.15;2.80;;;8.00;99.90;;;;;;5116675;27;20403;-90
2023/05/17 01:11:55;;;;;;;23.80;3.40;;;8.00;99.90;;;;;;5117336;27;20453;-90
2023/05/17 01:14:32;;;;;;;18.17;2.85;;;8.10;99.90;;;;;;5115380;27;20401;-89
2023/05/17 01:17:04;;;;;;;21.60;3.28;;;8.10;99.90;;;;;;5117411;27;20401;-91
2023/05/17 01:19:47;;;;;;;20.02;2.78;;;8.20;99.90;;;;;;5116037;27;20759;-90
2023/05/17 01:22:38;;;;;;;17.70;2.25;;;8.20;99.90;;;;;;5116298;27;20892;-90
2023/05/17 01:25:16;;;;;;;19.10;3.03;;;8.20;99.90;;;;;;5116825;27;20396;-90
2023/05/17 01:27:46;;;;;;;20.00;2.45;;;8.20;99.90;;;;;;5115132;27;20836;-90
2023/05/17 01:30:14;;;;;;;24.13;2.83;;;8.10;99.90;;;;;;5116929;27;20393;-90
2023/05/17 01:32:42;;;;;;;20.15;2.90;;;8.10;99.90;;;;;;5115577;27;20421;-90
2023/05/17 01:35:11;;;;;;;15.90;2.60;;;8.10;99.90;;;;;;5116127;27;20511;-90
2023/05/17 01:37:37;;;;;;;19.90;3.03;;;8.00;99.90;;;;;;5116679;27;20452;-89
2023/05/17 01:40:04;;;;;;;15.60;2.00;;;8.00;99.90;;;;;;5114498;27;20393;-90
2023/05/17 01:42:34;;;;;;;17.23;2.40;;;7.90;99.90;;;;;;5116949;27;20488;-90
2023/05/17 01:45:00;;;;;;;19.10;2.55;;;7.80;99.90;;;;;;5114466;27;20432;-89
2023/05/17 01:47:44;;;;;;;22.25;3.13;;;7.80;99.90;;;;;;5116947;27;20725;-91
2023/05/17 01:50:13;;;;;;;18.33;2.55;;;7.70;99.90;;;;;;5115839;27;20408;-90
2023/05/17 01:52:51;;;;;;;15.45;2.40;;;7.70;99.90;;;;;;5115444;27;20405;-90
2023/05/17 01:55:42;;;;;;;16.63;2.42;;;7.60;99.90;;;;;;5116586;27;20744;-91
2023/05/17 01:58:11;;;;;;;12.80;2.15;;;7.60;99.90;;;;;;5114721;27;20448;-90
2023/05/17 02:00:38;;;;;;;15.32;2.22;;;7.50;99.90;;;;;;5115049;27;20434;-91
2023/05/17 02:03:04;;;;;;;14.27;1.83;;;7.50;99.90;;;;;;5114924;27;20981;-89
2023/05/17 02:05:30;;;;;;;13.65;1.98;;;7.70;99.90;;;;;;5115117;27;20393;-90
2023/05/17 02:07:55;;;;;;;16.37;1.77;;;7.60;99.90;;;;;;5115769;27;20454;-90
2023/05/17 02:10:21;;;;;;;13.25;1.67;;;7.40;99.90;;;;;;5114627;27;20392;-90
2023/05/17 02:12:46;;;;;;;13.55;2.05;;;7.30;99.90;;;;;;5118325;27;20413;-90
2023/05/17 02:15:13;;;;;;;12.73;2.20;;;7.30;99.90;;;;;;5113843;27;20389;-90
2023/05/17 02:17:42;;;;;;;13.70;1.88;;;7.20;99.90;;;;;;5116208;27;20417;-91
2023/05/17 02:20:09;;;;;;;11.50;1.80;;;7.20;99.90;;;;;;5114604;27;20472;-89
2023/05/17 02:22:34;;;;;;;11.15;1.42;;;7.20;99.90;;;;;;5115883;27;20404;-91
2023/05/17 02:25:00;;;;;;;11.57;1.70;;;7.10;99.90;;;;;;5115151;27;20401;-90
2023/05/17 02:27:26;;;;;;;13.98;1.85;;;7.20;99.90;;;;;;5114713;27;20411;-89
2023/05/17 02:29:52;;;;;;;13.93;1.52;;;7.20;99.90;;;;;;5115788;27;20393;-90
2023/05/17 02:32:17;;;;;;;12.73;1.60;;;7.30;99.90;;;;;;5113547;27;20466;-90
2023/05/17 02:34:43;;;;;;;13.40;1.50;;;7.50;99.90;;;;;;5115756;27;20389;-90
2023/05/17 02:37:08;;;;;;;11.77;1.58;;;7.60;99.90;;;;;;5113907;27;20404;-90
2023/05/17 02:39:34;;;;;;;14.73;2.07;;;7.60;99.90;;;;;;5115599;27;20429;-90
2023/05/17 02:42:00;;;;;;;11.25;1.40;;;7.90;99.90;;;;;;5114348;27;20389;-90
2023/05/17 02:44:25;;;;;;;12.73;1.65;;;7.80;99.90;;;;;;5114735;27;20413;-91
2023/05/17 02:46:51;;;;;;;15.57;1.80;;;7.70;99.90;;;;;;5115192;27;20534;-90
2023/05/17 02:49:17;;;;;;;13.15;1.48;;;7.90;99.90;;;;;;5113364;27;20392;-91
2023/05/17 02:51:42;;;;;;;15.83;1.97;;;7.60;99.90;;;;;;5115501;27;20400;-91
2023/05/17 02:54:08;;;;;;;14.75;1.95;;;7.60;99.90;;;;;;5113265;27;20389;-91
2023/05/17 02:56:33;;;;;;;12.47;1.73;;;7.60;99.90;;;;;;5115168;27;20404;-92
2023/05/17 02:59:00;;;;;;;13.07;2.10;;;7.50;99.90;;;;;;5113270;27;20425;-90
2023/05/17 03:01:26;;;;;;;13.67;1.93;;;7.60;99.90;;;;;;5114530;27;20891;-91
2023/05/17 03:03:52;;;;;;;11.85;1.23;;;7.80;99.90;;;;;;5114420;27;20413;-90
2023/05/17 03:06:17;;;;;;;9.10;1.00;;;7.60;99.90;;;;;;5114155;27;20468;-90
2023/05/17 03:08:43;;;;;;;12.20;1.17;;;7.70;99.90;;;;;;5115001;27;20755;-91
2023/05/17 03:11:09;;;;;;;11.60;1.23;;;7.70;99.90;;;;;;5112701;27;20985;-91
2023/05/17 03:13:34;;;;;;;10.43;1.00;;;7.80;99.90;;;;;;5115139;27;20747;-90
2023/05/17 03:16:00;;;;;;;10.73;0.90;;;7.80;99.90;;;;;;5113182;27;20435;-90
2023/05/17 03:18:26;;;;;;;11.52;1.10;;;7.80;99.90;;;;;;5114896;27;20421;-91
2023/05/17 03:20:51;;;;;;;7.17;0.80;;;7.80;99.90;;;;;;5113578;27;20396;-90
2023/05/17 03:23:17;;;;;;;9.65;0.73;;;7.80;99.90;;;;;;5114111;27;20412;-90
2023/05/17 03:25:42;;;;;;;9.23;1.10;;;7.80;99.90;;;;;;5114210;27;20397;-91
2023/05/17 03:28:08;;;;;;;10.87;0.93;;;7.80;99.90;;;;;;5112792;27;20918;-91
2023/05/17 03:30:34;;;;;;;7.97;0.65;;;7.80;99.90;;;;;;5114881;27;20787;-90
2023/05/17 03:32:59;;;;;;;10.18;0.90;;;7.80;99.90;;;;;;5112354;27;20385;-90
2023/05/17 03:35:25;;;;;;;9.67;0.90;;;7.90;99.90;;;;;;5114892;27;20639;-91
2023/05/17 03:37:51;;;;;;;8.18;0.88;;;8.00;99.90;;;;;;5112478;27;20533;-90
2023/05/17 03:40:16;;;;;;;8.33;0.73;;;8.00;99.90;;;;;;5114373;27;21091;-90
2023/05/17 03:42:42;;;;;;;9.10;1.00;;;8.00;99.90;;;;;;5113617;27;20449;-91
2023/05/17 03:45:08;;;;;;;10.07;1.07;;;8.10;99.90;;;;;;5112975;27;20415;-91
2023/05/17 03:47:33;;;;;;;9.73;0.70;;;8.20;99.90;;;;;;5114253;27;20436;-91
2023/05/17 03:49:59;;;;;;;9.50;0.80;;;8.20;99.90;;;;;;5112062;27;20397;-90
2023/05/17 03:52:25;;;;;;;8.35;0.60;;;8.20;99.90;;;;;;5114195;27;20393;-91
2023/05/17 03:54:50;;;;;;;10.77;1.07;;;8.20;99.90;;;;;;5112795;27;20393;-91
2023/05/17 03:57:16;;;;;;;9.85;1.15;;;8.30;99.90;;;;;;5114059;27;20400;-91
2023/05/17 03:59:42;;;;;;;8.88;0.85;;;8.30;99.90;;;;;;5112533;27;20815;-91
2023/05/17 04:02:07;;;;;;;10.97;1.43;;;8.30;99.90;;;;;;5113959;27;20405;-93
2023/05/17 04:04:33;;;;;;;10.20;0.98;;;8.30;99.90;;;;;;5114141;27;20895;-90
2023/05/17 04:06:59;;;;;;;11.27;1.00;;;8.40;99.90;;;;;;5112572;27;20389;-91
2023/05/17 04:09:24;;;;;;;11.17;1.20;;;8.40;99.90;;;;;;5114030;27;20453;-90
2023/05/17 04:11:50;;;;;;;8.55;1.08;;;8.40;99.90;;;;;;5111875;27;20887;-91
2023/05/17 04:14:17;;;;;;;9.95;1.60;;;8.40;99.90;;;;;;5114257;27;20432;-91
2023/05/17 04:16:43;;;;;;;10.68;0.93;;;8.50;99.90;;;;;;5112046;27;20397;-90
2023/05/17 04:19:09;;;;;;;7.70;0.75;;;8.60;99.90;;;;;;5113941;27;20456;-90
2023/05/17 04:21:34;;;;;;;10.37;0.90;;;8.40;99.90;;;;;;5112932;27;20902;-91
2023/05/17 04:24:00;;;;;;;9.38;0.85;;;8.40;99.90;;;;;;5114513;27;20453;-91
2023/05/17 04:26:26;;;;;;;8.38;1.00;;;8.50;99.90;;;;;;5118162;27;20393;-91
2023/05/17 04:28:51;;;;;;;8.70;0.60;;;8.50;99.90;;;;;;5116245;27;20523;-90
2023/05/17 04:31:17;;;;;;;7.90;0.73;;;8.50;99.90;;;;;;5117855;27;20407;-91
2023/05/17 04:33:43;;;;;;;10.50;1.15;;;8.50;99.90;;;;;;5116479;27;20419;-90
2023/05/17 04:36:08;;;;;;;8.93;0.80;;;8.60;99.90;;;;;;5117872;27;20480;-91
2023/05/17 04:38:34;;;;;;;7.60;1.00;;;8.60;99.90;;;;;;5116374;27;20417;-91
2023/05/17 04:41:03;;;;;;;8.98;0.60;;;8.70;99.90;;;;;;5117435;27;20530;-91
2023/05/17 04:43:29;;;;;;;8.48;0.90;;;8.70;99.90;;;;;;5117341;27;20428;-91
2023/05/17 04:45:58;;;;;;;9.07;0.85;;;8.70;99.90;;;;;;5116132;27;20923;-90
2023/05/17 04:48:27;;;;;;;8.23;1.00;;;8.80;99.90;;;;;;5117644;27;20393;-90
2023/05/17 04:50:53;;;;;;;8.10;1.08;;;8.80;99.90;;;;;;5115816;27;20501;-91
2023/05/17 04:53:19;;;;;;;9.13;0.77;;;8.80;99.90;;;;;;5117733;27;20436;-91
2023/05/17 04:55:46;;;;;;;6.97;0.87;;;8.80;99.90;;;;;;5115605;27;20396;-91
2023/05/17 04:58:12;;;;;;;10.30;0.98;;;8.90;99.90;;;;;;5117087;27;20420;-91
2023/05/17 05:00:38;;;;;;;9.27;1.05;;;9.30;99.90;;;;;;5116713;27;20407;-91
2023/05/17 05:03:03;;;;;;;8.07;0.93;;;9.00;99.90;;;;;;5116314;27;20780;-92
2023/05/17 05:05:30;;;;;;;7.32;0.55;;;9.00;99.90;;;;;;5117553;27;20409;-91
2023/05/17 05:07:56;;;;;;;8.63;0.80;;;9.00;99.90;;;;;;5115600;27;20728;-91
2023/05/17 05:10:22;;;;;;;9.10;1.00;;;9.00;99.90;;;;;;5117491;27;20426;-91
2023/05/17 05:12:48;;;;;;;9.63;0.73;;;9.00;99.90;;;;;;5114802;27;20894;-92
2023/05/17 05:15:14;;;;;;;8.05;0.60;;;9.10;99.90;;;;;;5117605;27;20419;-91
2023/05/17 05:17:40;;;;;;;7.88;0.85;;;9.10;99.90;;;;;;5115912;27;20425;-90
2023/05/17 05:20:07;;;;;;;6.97;0.80;;;9.20;99.90;;;;;;5116881;27;20393;-92
2023/05/17 05:22:33;;;;;;;8.40;0.77;;;9.20;99.90;;;;;;5116709;27;20792;-91
2023/05/17 05:24:58;;;;;;;8.70;0.90;;;9.20;99.90;;;;;;5115279;27;20464;-92
2023/05/17 05:27:24;;;;;;;9.07;0.73;;;9.40;99.90;;;;;;5117169;27;20397;-91
2023/05/17 05:29:50;;;;;;;9.37;0.90;;;9.40;99.90;;;;;;5114990;27;20389;-91
2023/05/17 05:32:16;;;;;;;7.17;1.20;;;9.40;99.90;;;;;;5116941;27;20393;-91
2023/05/17 05:34:41;;;;;;;12.45;1.02;;;9.20;99.90;;;;;;5114905;27;20389;-91
2023/05/17 05:37:07;;;;;;;9.52;0.75;;;9.30;99.90;;;;;;5116715;27;20405;-92
2023/05/17 05:39:33;;;;;;;10.27;1.10;;;9.20;99.90;;;;;;5115734;27;20503;-91
2023/05/17 05:41:58;;;;;;;10.70;1.20;;;9.20;99.90;;;;;;5115870;27;20829;-91
2023/05/17 05:44:24;;;;;;;6.53;0.85;;;9.20;99.90;;;;;;5116645;27;20396;-91
2023/05/17 05:46:50;;;;;;;12.97;1.30;;;9.30;99.90;;;;;;5114980;27;20389;-91
2023/05/17 05:49:15;;;;;;;13.13;1.43;;;9.30;99.90;;;;;;5117007;27;20416;-91
2023/05/17 05:51:41;;;;;;;13.38;1.73;;;9.40;99.90;;;;;;5114657;27;20454;-91
2023/05/17 05:54:06;;;;;;;11.37;1.30;;;9.50;99.90;;;;;;5116857;27;20426;-91
2023/05/17 05:56:35;;;;;;;13.38;1.30;;;9.60;99.90;;;;;;5132723;27;20408;-91
2023/05/17 05:59:01;;;;;;;12.33;1.83;;;9.80;99.90;;;;;;5115760;27;20767;-90
2023/05/17 06:01:27;;;;;;;12.27;1.45;;;9.90;99.90;;;;;;5116090;27;20408;-91
2023/05/17 06:03:53;;;;;;;13.53;1.70;;;10.30;99.90;;;;;;5115233;27;20874;-91
2023/05/17 06:06:18;;;;;;;13.93;1.70;;;10.10;99.90;;;;;;5116342;27;20496;-91
2023/05/17 06:08:46;;;;;;;13.02;1.80;;;10.20;99.90;;;;;;5114121;27;20457;-91
2023/05/17 06:11:12;;;;;;;12.35;1.50;;;10.40;99.90;;;;;;5116304;27;20445;-92
2023/05/17 06:13:38;;;;;;;11.13;1.10;;;10.50;97.60;;;;;;5113875;27;20381;-92
2023/05/17 06:16:04;;;;;;;9.35;1.33;;;10.40;94.70;;;;;;5116403;27;20542;-92
2023/05/17 06:18:30;;;;;;;12.30;1.27;;;10.40;94.00;;;;;;5114938;27;20428;-90
2023/05/17 06:20:56;;;;;;;12.37;1.67;;;10.40;96.40;;;;;;5114706;27;20396;-91
2023/05/17 06:23:22;;;;;;;13.65;1.80;;;10.60;99.90;;;;;;5115664;27;20462;-91
2023/05/17 06:25:48;;;;;;;11.88;1.42;;;10.70;97.00;;;;;;5113856;27;20411;-91
2023/05/17 06:28:13;;;;;;;11.52;1.05;;;11.00;95.70;;;;;;5115778;27;20400;-92
2023/05/17 06:30:39;;;;;;;12.63;1.70;;;11.30;96.40;;;;;;5113789;27;20401;-91
2023/05/17 06:33:05;;;;;;;10.93;1.15;;;11.40;92.30;;;;;;5115712;27;20746;-91
2023/05/17 06:35:30;;;;;;;12.10;1.25;;;11.40;93.00;;;;;;5113958;27;20420;-91
2023/05/17 06:37:56;;;;;;;12.33;1.47;;;11.30;94.10;;;;;;5115181;27;20436;-92
2023/05/17 06:40:22;;;;;;;8.88;1.23;;;11.20;93.30;;;;;;5115395;27;20405;-91
2023/05/17 06:42:47;;;;;;;11.97;1.33;;;11.10;95.50;;;;;;5113929;27;20388;-91
2023/05/17 06:45:13;;;;;;;10.48;1.60;;;11.20;93.10;;;;;;5115313;27;20400;-91
2023/05/17 06:47:39;;;;;;;12.07;1.60;;;11.00;88.80;;;;;;5112946;27;20449;-91
2023/05/17 06:50:06;;;;;;;10.50;1.48;;;11.10;92.10;;;;;;5115346;27;20389;-91
2023/05/17 06:52:31;;;;;;;11.77;1.70;;;10.90;95.30;;;;;;5113525;27;20389;-92
2023/05/17 06:54:57;;;;;;;11.53;1.30;;;10.90;96.60;;;;;;5115254;27;20444;-91
2023/05/17 06:57:23;;;;;;;12.23;1.48;;;10.90;87.80;;;;;;5114377;27;20413;-91
2023/05/17 06:59:49;;;;;;;9.73;1.05;;;10.80;91.30;;;;;;5114420;27;20389;-93
2023/05/17 07:02:14;;;;;;;12.87;1.73;;;10.80;86.20;;;;;;5114774;27;20477;-92
2023/05/17 07:04:40;;;;;;;10.40;1.42;;;11.00;90.80;;;;;;5113578;27;20392;-92
2023/05/17 07:07:06;;;;;;;9.77;1.37;;;10.80;84.40;;;;;;5115150;27;20393;-92
2023/05/17 07:09:31;;;;;;;10.47;1.00;;;10.80;92.70;;;;;;5113587;27;20401;-91
2023/05/17 07:11:57;;;;;;;8.82;1.30;;;11.00;90.00;;;;;;5115016;27;20495;-92
2023/05/17 07:14:23;;;;;;;11.07;1.33;;;11.10;91.40;;;;;;5113446;27;20405;-91
2023/05/17 07:16:48;;;;;;;11.98;1.20;;;11.20;94.40;;;;;;5115090;27;20397;-91
2023/05/17 07:19:14;;;;;;;10.70;0.93;;;11.30;93.40;;;;;;5114574;27;20504;-91
2023/05/17 07:21:40;;;;;;;7.60;0.90;;;11.50;81.40;;;;;;5114090;27;20409;-90
2023/05/17 07:24:06;;;;;;;11.20;1.70;;;11.40;90.90;;;;;;5114134;27;20779;-92
2023/05/17 07:26:32;;;;;;;10.87;1.40;;;11.80;90.20;;;;;;5113192;27;20405;-91
2023/05/17 07:28:57;;;;;;;9.40;1.08;;;11.60;81.20;;;;;;5114514;27;20400;-91
2023/05/17 07:31:23;;;;;;;11.63;1.10;;;11.70;89.80;;;;;;5112453;27;20403;-91
2023/05/17 07:33:49;;;;;;;10.90;1.17;;;12.00;93.90;;;;;;5114535;27;20400;-92
2023/05/17 07:36:14;;;;;;;8.18;1.00;;;12.10;84.40;;;;;;5113207;27;20760;-90
2023/05/17 07:38:40;;;;;;;9.73;1.30;;;12.30;76.60;;;;;;5113811;27;20520;-91
2023/05/17 07:41:08;;;;;;;8.38;1.05;;;12.10;69.80;;;;;;5113943;27;20470;-90
2023/05/17 07:43:36;;;;;;;10.75;1.00;;;12.10;66.30;;;;;;5112571;27;20393;-92
2023/05/17 07:46:02;;;;;;;10.90;1.17;;;12.00;70.80;;;;;;5114390;27;20951;-92
2023/05/17 07:48:28;;;;;;;12.10;1.48;;;12.20;69.90;;;;;;5112737;27;20397;-92
2023/05/17 07:50:54;;;;;;;10.43;1.38;;;12.30;72.60;;;;;;5114789;27;20408;-91
2023/05/17 07:53:20;;;;;;;8.52;1.50;;;12.40;66.90;;;;;;5112468;27;20816;-92
2023/05/17 07:55:45;;;;;;;11.53;1.20;;;12.60;69.40;;;;;;5113813;27;20429;-91
2023/05/17 07:58:11;;;;;;;10.65;1.30;;;12.50;75.30;;;;;;5112263;27;20534;-91
2023/05/17 08:00:37;;;;;;;8.57;1.00;;;12.30;77.90;;;;;;5113353;27;20454;-92
2023/05/17 08:03:03;;;;;;;10.50;1.48;;;12.40;90.00;;;;;;5114255;27;20388;-90
2023/05/17 08:05:29;;;;;;;10.73;1.30;;;12.30;84.10;;;;;;5112356;27;20947;-91
2023/05/17 08:07:58;;;;;;;13.30;1.57;;;12.20;80.90;;;;;;5114133;27;20385;-91
2023/05/17 08:10:23;;;;;;;9.88;1.35;;;12.10;82.70;;;;;;5112301;27;20424;-91
2023/05/17 08:12:49;;;;;;;12.02;1.30;;;12.00;92.70;;;;;;5114354;27;20957;-91
2023/05/17 08:15:15;;;;;;;12.17;1.40;;;12.00;95.90;;;;;;5113054;27;21098;-91
2023/05/17 08:17:40;;;;;;;11.53;1.73;;;12.00;92.20;;;;;;5113243;27;20420;-91
2023/05/17 08:20:07;;;;;;;12.95;1.50;;;12.10;98.40;;;;;;5113434;27;20401;-91
2023/05/17 08:22:32;;;;;;;11.80;1.45;;;12.10;96.40;;;;;;5129301;27;20442;-91
2023/05/17 08:24:58;;;;;;;14.38;1.80;;;12.40;98.50;;;;;;5113882;27;20405;-91
2023/05/17 08:27:25;;;;;;;10.93;1.30;;;12.80;88.10;;;;;;5111903;27;20389;-92
2023/05/17 08:29:52;;;;;;;11.05;1.50;;;12.50;72.70;;;;;;5113951;27;20397;-91
2023/05/17 08:32:18;;;;;;;10.57;1.17;;;12.50;84.80;;;;;;5111736;27;20405;-90
2023/05/17 08:34:44;;;;;;;8.95;0.90;;;12.70;70.10;;;;;;5113743;27;20763;-93
2023/05/17 08:37:11;;;;;;;7.72;1.05;;;12.40;78.40;;;;;;5112987;27;20401;-91
2023/05/17 08:39:36;;;;;;;9.83;1.13;;;12.40;67.30;;;;;;5112458;27;20421;-92
2023/05/17 08:42:06;;;;;;;10.33;1.20;;;12.50;72.60;;;;;;5113817;27;20404;-91
2023/05/17 08:44:32;;;;;;;11.27;1.00;;;12.70;88.20;;;;;;5112103;27;20401;-92
2023/05/17 08:46:59;;;;;;;8.25;1.10;;;13.10;70.70;;;;;;5113530;27;20397;-91
2023/05/17 08:49:27;;;;;;;7.77;0.83;;;12.90;66.90;;;;;;5111934;27;20396;-91
2023/05/17 08:51:54;;;;;;;7.63;1.08;;;13.00;64.00;;;;;;5113838;27;20411;-91
2023/05/17 08:54:19;;;;;;;8.60;0.90;;;13.10;66.50;;;;;;5112633;27;20880;-91
2023/05/17 08:56:50;;;;;;;9.43;1.00;;;13.10;62.80;;;;;;5113114;27;20413;-92
2023/05/17 08:59:18;;;;;;;8.80;0.95;;;13.10;59.80;;;;;;5113315;27;20433;-91
2023/05/17 09:01:46;;;;;;;7.88;0.80;;;13.10;56.80;;;;;;5111360;27;20922;-90
2023/05/17 09:04:13;;;;;;;8.43;1.00;;;12.90;60.70;;;;;;5113487;27;20954;-90
2023/05/17 09:06:38;;;;;;;10.63;0.98;;;12.90;62.40;;;;;;5111787;27;20408;-92
2023/05/17 09:09:06;;;;;;;8.63;1.10;;;13.10;78.10;;;;;;5113814;27;20405;-91
2023/05/17 09:11:32;;;;;;;8.63;0.73;;;13.60;70.40;;;;;;5116357;27;20478;-91
2023/05/17 09:14:00;;;;;;;7.78;0.93;;;13.80;67.00;;;;;;5116275;27;20412;-92
2023/05/17 09:16:30;;;;;;;9.20;1.17;;;14.10;73.10;;;;;;5116766;27;20397;-91
2023/05/17 09:18:56;;;;;;;9.23;1.08;;;14.40;66.50;;;;;;5115393;27;20423;-91
2023/05/17 09:21:23;;;;;;;7.95;0.82;;;14.60;57.90;;;;;;5117422;27;20759;-91
2023/05/17 09:23:51;;;;;;;7.28;0.88;;;14.60;57.80;;;;;;5114827;27;20478;-92
2023/05/17 09:26:17;;;;;;;6.93;0.90;;;14.30;56.80;;;;;;5117144;27;20405;-92
2023/05/17 09:28:43;;;;;;;7.93;0.90;;;14.20;60.50;;;;;;5115466;27;20496;-90
2023/05/17 09:31:12;;;;;;;8.60;1.25;;;14.20;64.10;;;;;;5116812;27;20393;-93
2023/05/17 09:33:48;;;;;;;8.13;0.67;;;14.20;55.10;;;;;;5116516;27;20516;-91
2023/05/17 09:36:19;;;;;;;7.88;0.88;;;14.10;59.70;;;;;;5114972;27;20393;-92
2023/05/17 09:39:21;;;;;;;6.50;0.70;;;14.20;57.50;;;;;;5117874;27;20425;-92
2023/05/17 09:41:47;;;;;;;6.07;0.63;;;14.40;58.90;;;;;;5132052;27;20402;-91
2023/05/17 09:44:14;;;;;;;6.85;0.95;;;14.60;53.30;;;;;;5116152;27;20931;-92
2023/05/17 09:46:47;;;;;;;7.85;0.70;;;14.60;56.40;;;;;;5116582;27;20401;-91
2023/05/17 09:49:13;;;;;;;7.60;0.80;;;14.50;51.80;;;;;;5114832;27;20488;-93
2023/05/17 09:51:43;;;;;;;7.90;1.00;;;14.50;53.10;;;;;;5116449;27;20451;-92
2023/05/17 09:54:10;;;;;;;9.35;1.10;;;14.50;53.20;;;;;;5114421;27;20405;-89
2023/05/17 09:56:36;;;;;;;7.50;0.70;;;14.70;53.20;;;;;;5116696;27;20508;-91
2023/05/17 09:59:03;;;;;;;6.90;0.80;;;14.40;52.80;;;;;;5131696;27;20503;-91
2023/05/17 10:01:30;;;;;;;9.03;1.00;;;14.30;54.30;;;;;;5115691;27;20971;-91
2023/05/17 10:04:03;;;;;;;7.40;1.10;;;14.20;54.50;;;;;;5132927;27;20428;-91
2023/05/17 10:06:32;;;;;;;8.35;1.00;;;14.20;56.20;;;;;;5114466;27;20399;-91
2023/05/17 10:08:59;;;;;;;7.35;0.88;;;14.70;56.90;;;;;;5116255;27;20389;-93
2023/05/17 10:11:33;;;;;;;7.72;0.90;;;14.50;53.30;;;;;;5114074;27;20526;-92
2023/05/17 10:14:04;;;;;;;8.18;0.80;;;14.50;54.30;;;;;;5116205;27;20464;-91
2023/05/17 10:16:33;;;;;;;8.27;0.80;;;14.50;54.00;;;;;;5114711;27;20445;-90
2023/05/17 10:19:00;;;;;;;7.18;0.70;;;14.50;55.50;;;;;;5115143;27;20985;-92
2023/05/17 10:21:27;;;;;;;11.13;1.25;;;14.90;55.80;;;;;;5114414;27;20925;-91
2023/05/17 10:23:54;;;;;;;9.13;1.00;;;14.80;60.10;;;;;;5110308;27;20403;-91
2023/05/17 10:26:21;;;;;;;7.60;0.90;;;15.10;61.60;;;;;;5112176;27;20414;-91
2023/05/17 10:28:50;;;;;;;9.18;1.20;;;15.10;56.60;;;;;;5110135;27;20905;-91
2023/05/17 10:31:17;;;;;;;6.23;1.00;;;15.20;60.90;;;;;;5112155;27;20532;-91
2023/05/17 10:33:45;;;;;;;8.30;0.93;;;15.40;60.00;;;;;;5110969;27;20843;-91
2023/05/17 10:36:16;;;;;;;6.85;0.75;;;15.30;57.80;;;;;;5111678;27;20441;-91
2023/05/17 10:38:42;;;;;;;8.90;0.85;;;15.40;56.10;;;;;;5112078;27;20423;-90
2023/05/17 10:41:10;;;;;;;8.48;0.90;;;15.20;54.60;;;;;;5110502;27;20407;-92
2023/05/17 10:43:38;;;;;;;8.20;1.00;;;15.30;55.50;;;;;;5111976;27;20478;-92
2023/05/17 10:46:14;;;;;;;9.55;1.00;;;15.80;54.40;;;;;;5109747;27;20391;-91
2023/05/17 10:48:42;;;;;;;7.22;0.98;;;16.70;60.00;;;;;;5111731;27;20471;-91
2023/05/17 10:51:10;;;;;;;7.93;0.90;;;16.90;50.00;;;;;;5110811;27;20442;-91
2023/05/17 10:54:03;;;;;;;6.90;1.10;;;16.80;52.30;;;;;;5111073;27;20386;-91
2023/05/17 10:56:30;;;;;;;8.07;1.00;;;16.70;48.40;;;;;;5111860;27;20914;-92
2023/05/17 10:59:20;;;;;;;8.95;0.90;;;17.00;52.50;;;;;;5109754;27;20429;-92
2023/05/17 11:01:58;;;;;;;9.05;1.00;;;17.30;51.80;;;;;;5111627;27;20409;-91
2023/05/17 11:04:39;;;;;;;7.45;1.00;;;17.20;48.20;;;;;;5111087;27;20753;-92
2023/05/17 11:07:28;;;;;;;7.53;0.88;;;16.80;50.60;;;;;;5110066;27;20460;-91
2023/05/17 11:09:54;;;;;;;7.18;0.98;;;16.70;47.20;;;;;;5111660;27;20451;-92
2023/05/17 11:12:34;;;;;;;9.50;1.17;;;16.30;50.10;;;;;;5109935;27;20409;-91
2023/05/17 11:15:11;;;;;;;7.35;1.00;;;16.20;52.20;;;;;;5111301;27;20731;-91
2023/05/17 11:17:52;;;;;;;7.57;0.90;;;16.20;51.70;;;;;;5111410;27;20738;-92
2023/05/17 11:20:24;;;;;;;8.93;1.13;;;16.20;53.00;;;;;;5109496;27;20406;-92
2023/05/17 11:22:57;;;;;;;8.70;0.80;;;15.80;52.80;;;;;;5111307;27;20406;-91
2023/05/17 11:25:26;;;;;;;8.98;1.08;;;15.60;52.10;;;;;;5109270;27;20814;-91
2023/05/17 11:27:52;;;;;;;7.45;1.00;;;15.70;56.70;;;;;;5111219;27;20390;-91
2023/05/17 11:30:25;;;;;;;8.68;1.00;;;16.00;55.50;;;;;;5110685;27;20447;-90
2023/05/17 11:32:53;;;;;;;7.55;0.80;;;16.00;50.70;;;;;;5108943;27;20403;-92
2023/05/17 11:35:25;;;;;;;8.02;1.00;;;15.80;52.40;;;;;;5111215;27;20420;-90
2023/05/17 11:37:52;;;;;;;8.50;0.80;;;16.00;50.80;;;;;;5108956;27;20425;-91
2023/05/17 11:40:28;;;;;;;8.57;0.70;;;15.80;49.50;;;;;;5110968;27;20406;-92
2023/05/17 11:43:11;;;;;;;6.50;0.70;;;15.90;52.30;;;;;;5109495;27;20403;-91
2023/05/17 11:45:47;;;;;;;5.45;0.88;;;16.40;54.70;;;;;;5109837;28;20459;-92
2023/05/17 11:48:13;;;;;;;8.10;0.95;;;16.90;50.90;;;;;;5110737;27;20933;-91
2023/05/17 11:50:44;;;;;;;6.80;0.70;;;16.50;48.40;;;;;;5108869;27;20398;-91
2023/05/17 11:53:10;;;;;;;6.22;0.90;;;16.00;49.20;;;;;;5112112;27;20966;-91
2023/05/17 11:55:47;;;;;;;8.90;0.73;;;16.20;51.30;;;;;;5108704;27;20764;-91
2023/05/17 11:58:15;;;;;;;8.77;0.75;;;16.40;48.90;;;;;;5110241;27;20423;-91
2023/05/17 12:00:42;;;;;;;6.78;0.68;;;16.90;48.60;;;;;;5110099;27;20407;-92
2023/05/17 12:03:25;;;;;;;6.50;0.60;;;16.80;48.20;;;;;;5109042;27;20398;-91
2023/05/17 12:06:13;;;;;;;6.82;0.70;;;16.50;48.90;;;;;;5110902;28;20391;-91
2023/05/17 12:08:42;;;;;;;7.97;0.70;;;16.10;49.80;;;;;;5108584;27;20394;-91
2023/05/17 12:11:13;;;;;;;4.83;0.60;;;16.00;49.10;;;;;;5110171;28;20390;-93
2023/05/17 12:13:42;;;;;;;7.20;0.70;;;16.40;49.70;;;;;;5110298;28;20890;-92
2023/05/17 12:16:16;;;;;;;7.70;0.90;;;16.80;48.60;;;;;;5108936;28;20459;-92
2023/05/17 12:18:48;;;;;;;5.72;0.63;;;17.10;49.20;;;;;;5110674;28;20418;-91
2023/05/17 12:21:15;;;;;;;8.98;1.38;;;17.30;46.10;;;;;;5108397;28;20386;-92
2023/05/17 12:23:45;;;;;;;5.82;0.60;;;17.40;47.10;;;;;;5112605;27;20394;-92
2023/05/17 12:26:14;;;;;;;6.03;0.85;;;17.70;44.20;;;;;;5112213;27;20484;-92
2023/05/17 12:28:41;;;;;;;7.43;0.77;;;18.10;45.80;;;;;;5113470;27;20393;-90
2023/05/17 12:31:19;;;;;;;6.65;0.75;;;18.40;44.30;;;;;;5113466;27;20385;-91
2023/05/17 12:33:46;;;;;;;6.75;0.75;;;18.30;44.70;;;;;;5111860;27;20408;-91
2023/05/17 12:36:12;;;;;;;6.55;0.85;;;18.50;44.10;;;;;;5114083;27;20400;-92
2023/05/17 12:38:43;;;;;;;4.55;0.68;;;18.30;42.70;;;;;;5111446;27;20498;-91
2023/05/17 12:41:11;;;;;;;6.07;0.70;;;18.10;42.20;;;;;;5113776;27;20436;-92
2023/05/17 12:43:38;;;;;;;6.13;0.80;;;17.90;42.00;;;;;;5112287;27;20428;-92
2023/05/17 12:46:18;;;;;;;5.75;0.50;;;18.10;45.90;;;;;;5116285;27;20965;-90
2023/05/17 12:48:48;;;;;;;4.68;0.77;;;18.60;45.20;;;;;;5118013;27;20409;-92